createdAt,value
2023-11-10T05:01:55.943Z,2.06
2023-11-10T05:12:24.357Z,2.17
2023-11-10T05:22:51.984Z,2.30
2023-11-10T05:33:20.422Z,2.61
2023-11-10T05:43:42.912Z,2.83
2023-11-10T05:54:06.559Z,3.12
2023-11-10T06:04:38.652Z,3.61
2023-11-10T06:15:07.302Z,4.19
2023-11-10T06:25:35.948Z,4.74
2023-11-10T06:36:05.052Z,5.32
2023-11-10T06:46:28.965Z,5.87
2023-11-10T06:56:59.356Z,6.07
2023-11-10T07:07:27.517Z,6.55
2023-11-10T07:17:52.947Z,6.61
2023-11-10T07:28:20.646Z,6.99
2023-11-10T07:38:48.739Z,7.37
2023-11-10T07:49:17.012Z,7.45
2023-11-10T07:59:40.976Z,8.17
2023-11-10T08:10:09.705Z,8.74
2023-11-10T08:20:35.073Z,9.05
2023-11-10T08:31:03.120Z,8.87
2023-11-10T08:41:30.498Z,9.41
2023-11-10T08:52:00.516Z,10.34
2023-11-10T09:02:29.184Z,10.06
2023-11-10T09:12:34.484Z,10.10
2023-11-10T09:22:56.944Z,9.94
2023-11-10T09:33:18.252Z,10.55
2023-11-10T09:43:39.953Z,10.79
2023-11-10T09:54:03.215Z,11.14
2023-11-10T10:04:24.315Z,11.13
2023-11-10T10:14:56.831Z,11.11
2023-11-10T10:25:24.953Z,11.19
2023-11-10T10:35:53.146Z,11.21
2023-11-10T10:46:21.663Z,11.35
2023-11-10T10:56:50.534Z,11.41
2023-11-10T11:07:24.009Z,11.41
2023-11-10T11:18:23.047Z,11.57
2023-11-10T11:29:15.468Z,11.32
2023-11-10T11:39:52.087Z,11.49
2023-11-10T11:50:20.565Z,11.72
2023-11-10T12:00:49.572Z,11.97
2023-11-10T12:11:17.626Z,11.75
2023-11-10T12:21:53.551Z,11.31
2023-11-10T12:32:22.191Z,11.31
2023-11-10T12:42:51.191Z,11.05
2023-11-10T12:53:20.473Z,10.96
2023-11-10T13:03:49.796Z,11.00
2023-11-10T13:14:17.634Z,10.91
2023-11-10T13:24:47.456Z,10.77
2023-11-10T13:35:17.084Z,10.51
2023-11-10T13:45:44.741Z,10.30
2023-11-10T13:56:12.900Z,10.20
2023-11-10T14:06:40.973Z,9.97
2023-11-10T14:17:05.502Z,9.67
2023-11-10T14:27:27.108Z,9.56
2023-11-10T14:37:59.792Z,9.36
2023-11-10T14:48:29.277Z,9.10
2023-11-10T14:58:58.229Z,8.99
2023-11-10T15:09:26.074Z,8.98
2023-11-10T15:19:48.621Z,8.97
2023-11-10T15:30:16.429Z,8.87
2023-11-10T15:40:46.988Z,8.78
2023-11-10T15:51:14.868Z,8.75
2023-11-10T16:01:37.145Z,8.58
2023-11-10T16:12:05.709Z,8.56
2023-11-10T16:22:27.476Z,8.30
2023-11-10T16:32:49.453Z,8.40
2023-11-10T16:43:10.704Z,8.20
2023-11-10T16:53:32.309Z,8.20
2023-11-10T17:03:53.535Z,8.04
2023-11-10T17:14:21.801Z,7.89
2023-11-10T17:24:44.357Z,7.84
2023-11-10T17:35:07.257Z,7.83
2023-11-10T17:45:36.255Z,7.97
2023-11-10T17:56:04.953Z,7.87
2023-11-10T18:06:28.003Z,7.82
2023-11-10T18:16:55.773Z,7.70
2023-11-10T18:27:25.182Z,7.59
2023-11-10T18:37:53.471Z,7.59
2023-11-10T18:48:22.629Z,7.55
2023-11-10T18:58:53.486Z,7.54
2023-11-10T19:09:22.056Z,7.57
2023-11-10T19:19:49.910Z,7.55
2023-11-10T19:30:18.131Z,7.50
2023-11-10T19:40:46.189Z,7.48
2023-11-10T20:01:38.416Z,7.44
2023-11-10T20:12:11.400Z,7.44
2023-11-10T20:22:39.123Z,7.32
2023-11-10T20:33:06.965Z,7.40
2023-11-10T20:43:35.517Z,7.19
2023-11-10T20:54:03.451Z,7.18
2023-11-10T21:04:30.937Z,7.17
2023-11-10T21:14:58.950Z,7.12
2023-11-10T21:25:21.230Z,7.16
2023-11-10T21:35:44.320Z,7.33
2023-11-10T21:46:05.855Z,7.22
2023-11-10T21:56:28.396Z,7.41
